Time;durP1;ratioP1;P1;durP2;ratioP2;P2;SDS_P1;SDS_P2;PMS_P1;PMS_P2;Temp;Humidity;BMP_temperature;BMP_pressure;BME280_temperature;BME280_humidity;BME280_pressure;Samples;Min_cycle;Max_cycle;Signal;HPM_P1;HPM_P2
2021/01/13 00:00:53;;;;;;;8.90;4.97;;;4.60;99.90;;;;;;5091055;28;20419;-78
2021/01/13 00:03:19;;;;;;;10.17;4.50;;;4.30;99.90;;;;;;5090827;28;20288;-79
2021/01/13 00:05:44;;;;;;;12.20;4.53;;;4.70;99.90;;;;;;5063461;28;20185;-78
2021/01/13 00:08:11;;;;;;;13.50;4.97;;;4.40;99.90;;;;;;5085627;28;20180;-78
2021/01/13 00:10:36;;;;;;;10.83;5.10;;;4.50;99.90;;;;;;5084551;28;20199;-78
2021/01/13 00:13:03;;;;;;;9.70;5.07;;;4.40;99.90;;;;;;5083792;28;20895;-78
2021/01/13 00:15:29;;;;;;;12.23;5.30;;;4.40;99.90;;;;;;5091164;28;20565;-79
2021/01/13 00:17:54;;;;;;;9.13;5.80;;;4.30;99.90;;;;;;5096735;28;20427;-78
2021/01/13 00:20:20;;;;;;;12.70;7.00;;;4.20;99.90;;;;;;5087171;28;20177;-78
2021/01/13 00:22:49;;;;;;;17.53;6.70;;;4.10;99.90;;;;;;5085831;28;20736;-78
2021/01/13 00:25:16;;;;;;;9.70;5.87;;;4.10;99.90;;;;;;5085510;28;20188;-78
2021/01/13 00:27:42;;;;;;;7.67;5.10;;;4.10;99.90;;;;;;5068309;28;20427;-78
2021/01/13 00:30:10;;;;;;;7.47;4.63;;;4.20;99.90;;;;;;5056332;28;20461;-78
2021/01/13 00:32:36;;;;;;;9.23;4.27;;;4.20;99.90;;;;;;5092193;28;20177;-78
2021/01/13 00:35:02;;;;;;;10.37;5.83;;;4.00;99.90;;;;;;5074609;28;20418;-78
2021/01/13 00:37:28;;;;;;;5.53;4.80;;;4.20;99.90;;;;;;5082312;28;20196;-78
2021/01/13 00:39:54;;;;;;;7.63;4.57;;;3.90;99.90;;;;;;5085594;28;20422;-78
2021/01/13 00:42:20;;;;;;;9.47;5.20;;;3.90;99.90;;;;;;5085156;28;20188;-78
2021/01/13 00:44:45;;;;;;;9.27;4.50;;;4.00;99.90;;;;;;5088077;28;20210;-78
2021/01/13 00:47:17;;;;;;;7.97;5.00;;;3.70;99.90;;;;;;5078935;28;20187;-78
2021/01/13 00:49:43;;;;;;;11.97;6.20;;;3.90;99.90;;;;;;5065245;28;20204;-78
2021/01/13 00:52:09;;;;;;;12.17;5.00;;;3.80;99.90;;;;;;5059728;28;20925;-78
2021/01/13 00:54:35;;;;;;;11.90;5.37;;;3.70;99.90;;;;;;5074522;28;20280;-78
2021/01/13 00:57:01;;;;;;;6.10;5.37;;;3.90;99.90;;;;;;5086356;28;20524;-78
2021/01/13 00:59:29;;;;;;;8.30;5.50;;;3.80;99.90;;;;;;5088059;28;20516;-78
2021/01/13 01:01:54;;;;;;;10.73;4.87;;;3.90;99.90;;;;;;5094136;28;20421;-78
2021/01/13 01:04:20;;;;;;;10.23;5.67;;;3.90;99.90;;;;;;5085614;28;20497;-78
2021/01/13 01:06:49;;;;;;;9.60;5.70;;;3.80;99.90;;;;;;5051458;28;20208;-78
2021/01/13 01:09:16;;;;;;;9.73;5.30;;;3.80;99.90;;;;;;5085008;28;20198;-78
2021/01/13 01:11:42;;;;;;;10.63;6.13;;;3.70;99.90;;;;;;5086297;28;20454;-78
2021/01/13 01:14:09;;;;;;;9.17;6.30;;;3.70;99.90;;;;;;5086905;28;20434;-78
2021/01/13 01:16:39;;;;;;;7.10;5.70;;;3.50;99.90;;;;;;5077251;28;20423;-78
2021/01/13 01:19:07;;;;;;;14.33;6.60;;;3.60;99.90;;;;;;5091617;28;20461;-78
2021/01/13 01:21:33;;;;;;;8.53;6.27;;;3.60;99.90;;;;;;5086368;28;20433;-78
2021/01/13 01:23:59;;;;;;;8.33;5.40;;;3.80;99.90;;;;;;5084450;28;20559;-78
2021/01/13 01:26:27;;;;;;;7.47;5.40;;;3.50;99.90;;;;;;5068327;28;20434;-78
2021/01/13 01:28:53;;;;;;;12.77;5.37;;;3.60;99.90;;;;;;5083965;28;20212;-78
2021/01/13 01:31:19;;;;;;;12.53;6.00;;;3.30;99.90;;;;;;5084149;28;20480;-78
2021/01/13 01:33:44;;;;;;;10.30;6.40;;;3.40;99.90;;;;;;5080622;28;20180;-78
2021/01/13 01:36:13;;;;;;;9.63;5.60;;;3.60;99.90;;;;;;5084670;28;20181;-78
2021/01/13 01:38:41;;;;;;;6.80;5.27;;;3.50;99.90;;;;;;5085997;28;20184;-79
2021/01/13 01:41:08;;;;;;;11.27;5.90;;;3.60;99.90;;;;;;5077548;28;20421;-78
2021/01/13 01:43:34;;;;;;;10.47;6.07;;;3.50;99.90;;;;;;5079021;28;20784;-79
2021/01/13 01:46:00;;;;;;;8.60;5.13;;;3.60;99.90;;;;;;5087876;28;20987;-80
2021/01/13 01:48:30;;;;;;;9.10;5.63;;;3.70;99.90;;;;;;5090840;28;20438;-80
2021/01/13 01:51:01;;;;;;;10.63;5.50;;;3.70;99.90;;;;;;5084376;28;20472;-78
2021/01/13 01:53:48;;;;;;;11.57;5.80;;;3.40;99.90;;;;;;5079741;28;20422;-78
2021/01/13 01:56:24;;;;;;;6.80;5.33;;;3.50;99.90;;;;;;5076247;28;20957;-78
2021/01/13 01:59:05;;;;;;;9.83;6.50;;;3.40;99.90;;;;;;5085651;28;20476;-78
2021/01/13 02:01:34;;;;;;;13.00;6.57;;;3.50;99.90;;;;;;5088104;28;20479;-78
2021/01/13 02:04:06;;;;;;;11.50;6.27;;;3.50;99.90;;;;;;5088913;28;20417;-78
2021/01/13 02:06:33;;;;;;;6.70;5.50;;;3.30;99.90;;;;;;5074877;28;20779;-78
2021/01/13 02:08:59;;;;;;;10.50;5.23;;;3.40;99.90;;;;;;5088524;28;20436;-78
2021/01/13 02:11:26;;;;;;;6.33;5.73;;;3.70;99.90;;;;;;5089325;28;20465;-78
2021/01/13 02:13:52;;;;;;;7.20;6.23;;;3.50;99.90;;;;;;5088477;28;20261;-78
2021/01/13 02:16:20;;;;;;;10.07;5.87;;;3.60;99.90;;;;;;5090916;28;20434;-78
2021/01/13 02:18:47;;;;;;;8.80;6.30;;;3.60;99.90;;;;;;5083905;28;20761;-78
2021/01/13 02:21:18;;;;;;;10.90;6.37;;;3.60;99.90;;;;;;5089276;28;20397;-78
2021/01/13 02:24:09;;;;;;;8.17;5.73;;;3.60;99.90;;;;;;5070462;28;20418;-78
2021/01/13 02:26:40;;;;;;;8.17;5.80;;;3.40;99.90;;;;;;5087764;28;20422;-80
2021/01/13 02:29:15;;;;;;;8.70;6.00;;;3.60;99.90;;;;;;5088532;28;21456;-78
2021/01/13 02:31:59;;;;;;;8.40;5.43;;;3.30;99.90;;;;;;5093484;28;20476;-78
2021/01/13 02:34:38;;;;;;;11.00;5.60;;;3.30;99.90;;;;;;5095117;28;20422;-80
2021/01/13 02:37:32;;;;;;;12.90;6.10;;;3.30;99.90;;;;;;5089350;28;20856;-80
2021/01/13 02:39:57;;;;;;;6.93;5.67;;;3.40;99.90;;;;;;5079855;28;20444;-80
2021/01/13 02:42:32;;;;;;;9.63;5.70;;;3.50;99.90;;;;;;5087670;28;20415;-79
2021/01/13 02:45:19;;;;;;;13.03;5.83;;;3.50;99.90;;;;;;5091411;28;20569;-78
2021/01/13 02:47:57;;;;;;;10.60;5.90;;;3.30;99.90;;;;;;5089424;28;20545;-80
2021/01/13 02:50:28;;;;;;;13.73;6.10;;;3.20;99.90;;;;;;5087760;28;20454;-80
2021/01/13 02:53:14;;;;;;;9.37;5.53;;;3.30;99.90;;;;;;5086842;28;20423;-78
2021/01/13 02:55:46;;;;;;;10.47;5.83;;;3.40;99.90;;;;;;5088354;28;20901;-78
2021/01/13 02:58:15;;;;;;;15.40;6.30;;;3.30;99.90;;;;;;5069681;28;20509;-80
2021/01/13 03:00:41;;;;;;;9.87;6.37;;;3.20;99.90;;;;;;5084576;28;20854;-78
2021/01/13 03:03:07;;;;;;;8.23;5.90;;;3.20;99.90;;;;;;5096283;28;20408;-80
2021/01/13 03:05:33;;;;;;;9.10;6.23;;;3.50;99.90;;;;;;5075634;28;20211;-80
2021/01/13 03:08:00;;;;;;;11.43;5.70;;;3.50;99.90;;;;;;5087008;28;20442;-78
2021/01/13 03:10:27;;;;;;;6.83;5.50;;;3.60;99.90;;;;;;5087032;28;20784;-80
2021/01/13 03:13:04;;;;;;;8.10;6.60;;;3.40;99.90;;;;;;5053458;28;20433;-80
2021/01/13 03:15:31;;;;;;;11.50;5.70;;;3.50;99.90;;;;;;5069685;28;20441;-80
2021/01/13 03:18:07;;;;;;;14.57;6.40;;;3.40;99.90;;;;;;5099461;28;20414;-80
2021/01/13 03:20:54;;;;;;;12.07;6.80;;;3.40;99.90;;;;;;5066296;28;20840;-80
2021/01/13 03:23:22;;;;;;;7.93;5.57;;;3.40;99.90;;;;;;5086220;28;20418;-80
2021/01/13 03:25:54;;;;;;;9.70;5.10;;;3.60;99.90;;;;;;5086802;28;20502;-80
2021/01/13 03:28:30;;;;;;;12.03;6.10;;;3.60;99.90;;;;;;5075396;28;20415;-80
2021/01/13 03:30:58;;;;;;;10.37;6.27;;;3.50;99.90;;;;;;5089579;28;20500;-80
2021/01/13 03:33:24;;;;;;;11.70;5.93;;;3.30;99.90;;;;;;5102290;28;20500;-80
2021/01/13 03:36:02;;;;;;;9.50;6.13;;;3.40;99.90;;;;;;5087513;28;20850;-80
2021/01/13 03:38:32;;;;;;;10.60;5.50;;;3.40;99.90;;;;;;5086796;28;20191;-80
2021/01/13 03:41:06;;;;;;;8.67;5.80;;;3.50;99.90;;;;;;5086373;28;20844;-80
2021/01/13 03:43:40;;;;;;;16.23;6.90;;;3.50;99.90;;;;;;5087079;28;20430;-80
2021/01/13 03:46:10;;;;;;;8.83;6.20;;;3.70;99.90;;;;;;5093078;28;20525;-80
2021/01/13 03:48:42;;;;;;;7.13;5.33;;;3.40;99.90;;;;;;5100840;28;20508;-80
2021/01/13 03:51:58;;;;;;;8.50;5.77;;;3.50;99.90;;;;;;5087446;28;20549;-80
2021/01/13 03:54:33;;;;;;;9.50;5.90;;;3.60;99.90;;;;;;5070704;28;20422;-79
2021/01/13 03:57:01;;;;;;;8.97;6.00;;;3.60;99.90;;;;;;5087501;28;20795;-80
2021/01/13 03:59:59;;;;;;;9.43;5.93;;;3.50;99.90;;;;;;5086097;28;20555;-79
2021/01/13 04:02:29;;;;;;;13.00;6.37;;;3.60;99.90;;;;;;5096310;28;20418;-80
2021/01/13 04:05:27;;;;;;;6.73;5.90;;;3.30;99.90;;;;;;5088551;28;20406;-80
2021/01/13 04:07:55;;;;;;;10.47;6.50;;;3.50;99.90;;;;;;5068730;28;20463;-80
2021/01/13 04:10:21;;;;;;;7.60;6.50;;;3.20;99.90;;;;;;5069214;28;20469;-80
2021/01/13 04:13:15;;;;;;;12.17;6.40;;;3.50;99.90;;;;;;5085496;28;20825;-80
2021/01/13 04:15:41;;;;;;;10.90;6.43;;;3.40;99.90;;;;;;5085697;28;20829;-80
2021/01/13 04:18:10;;;;;;;7.90;6.00;;;3.30;99.90;;;;;;5087726;28;20434;-80
2021/01/13 04:20:37;;;;;;;11.73;6.90;;;3.30;99.90;;;;;;5089277;28;20529;-80
2021/01/13 04:23:05;;;;;;;10.03;6.83;;;3.40;99.90;;;;;;5084780;28;20476;-80
2021/01/13 04:25:31;;;;;;;15.63;7.10;;;3.30;99.90;;;;;;5085816;28;20389;-80
2021/01/13 04:27:57;;;;;;;12.53;6.93;;;3.30;99.90;;;;;;5085427;28;20684;-80
2021/01/13 04:30:25;;;;;;;12.43;6.37;;;3.30;99.90;;;;;;5068365;28;20454;-80
2021/01/13 04:32:54;;;;;;;9.53;6.70;;;3.20;99.90;;;;;;5082571;28;20451;-80
2021/01/13 04:35:22;;;;;;;10.90;7.20;;;3.30;99.90;;;;;;5071866;28;20924;-80
2021/01/13 04:37:53;;;;;;;12.27;7.40;;;3.30;99.90;;;;;;5086326;28;20474;-80
2021/01/13 04:40:36;;;;;;;8.53;7.10;;;3.20;99.90;;;;;;5085163;28;20414;-80
2021/01/13 04:43:10;;;;;;;11.13;7.17;;;3.20;99.90;;;;;;5075543;28;20521;-80
2021/01/13 04:45:42;;;;;;;10.17;7.37;;;3.30;99.90;;;;;;5086262;28;20458;-80
2021/01/13 04:48:13;;;;;;;13.37;7.43;;;3.30;99.90;;;;;;5095134;28;20425;-80
2021/01/13 04:50:45;;;;;;;10.40;8.73;;;3.50;99.90;;;;;;5038950;28;20506;-80
2021/01/13 04:53:14;;;;;;;8.93;7.80;;;3.30;99.90;;;;;;5067929;28;20414;-80
2021/01/13 04:55:55;;;;;;;12.87;8.47;;;3.30;99.90;;;;;;5071835;28;20448;-80
2021/01/13 04:58:21;;;;;;;12.50;8.17;;;3.20;99.90;;;;;;5072567;28;20459;-80
2021/01/13 05:01:05;;;;;;;11.00;7.80;;;3.00;99.90;;;;;;5089571;28;20468;-80
2021/01/13 05:03:42;;;;;;;15.43;8.93;;;3.20;99.90;;;;;;5090308;28;20208;-80
2021/01/13 05:06:46;;;;;;;11.43;9.67;;;3.10;99.90;;;;;;5087623;28;21100;-80
2021/01/13 05:09:18;;;;;;;13.60;8.20;;;3.10;99.90;;;;;;5077832;28;20467;-80
2021/01/13 05:11:48;;;;;;;14.50;9.13;;;3.00;99.90;;;;;;5068220;28;20454;-80
2021/01/13 05:14:18;;;;;;;13.70;9.10;;;3.20;99.90;;;;;;5085761;28;20418;-80
2021/01/13 05:16:50;;;;;;;15.03;10.30;;;3.00;99.90;;;;;;5088804;28;20430;-80
2021/01/13 05:19:38;;;;;;;9.10;7.70;;;3.20;99.90;;;;;;5094417;28;20778;-80
2021/01/13 05:22:12;;;;;;;19.03;9.50;;;3.10;99.90;;;;;;5086673;28;20415;-80
2021/01/13 05:24:40;;;;;;;11.70;9.20;;;3.40;99.90;;;;;;5079380;28;20427;-80
2021/01/13 05:27:38;;;;;;;11.93;8.73;;;3.00;99.90;;;;;;5076821;28;20951;-80
2021/01/13 05:30:09;;;;;;;18.67;10.23;;;3.30;99.90;;;;;;5053930;28;20433;-80
2021/01/13 05:32:38;;;;;;;12.10;9.93;;;3.50;99.90;;;;;;5094661;28;20690;-80
2021/01/13 05:35:08;;;;;;;11.40;8.80;;;3.30;99.90;;;;;;5089845;28;20415;-80
2021/01/13 05:38:02;;;;;;;11.27;8.53;;;3.40;99.90;;;;;;5064662;28;20874;-80
2021/01/13 05:40:28;;;;;;;16.37;8.97;;;3.20;99.90;;;;;;5070819;28;20837;-80
2021/01/13 05:42:56;;;;;;;16.17;9.30;;;3.30;99.90;;;;;;5089471;28;20389;-80
2021/01/13 05:45:24;;;;;;;12.47;9.70;;;3.30;99.90;;;;;;5070406;28;20396;-80
2021/01/13 05:47:57;;;;;;;13.30;8.73;;;3.40;99.90;;;;;;5072189;28;20928;-80
2021/01/13 05:50:24;;;;;;;10.07;8.43;;;3.10;99.90;;;;;;5090485;28;20870;-80
2021/01/13 05:52:52;;;;;;;12.97;8.53;;;3.20;99.90;;;;;;5062016;28;20448;-80
2021/01/13 05:55:19;;;;;;;14.40;8.93;;;3.50;99.90;;;;;;5083315;28;20862;-80
2021/01/13 05:57:59;;;;;;;9.17;7.93;;;3.70;99.90;;;;;;5079405;28;20496;-80
2021/01/13 06:00:27;;;;;;;10.50;7.70;;;3.50;99.90;;;;;;5054217;28;20430;-80
2021/01/13 06:03:01;;;;;;;11.50;8.40;;;3.50;99.90;;;;;;5085549;28;20437;-80
2021/01/13 06:05:29;;;;;;;11.53;7.83;;;3.40;99.90;;;;;;5085725;28;20426;-80
2021/01/13 06:07:57;;;;;;;10.00;7.80;;;3.60;99.90;;;;;;5071384;28;20829;-82
2021/01/13 06:10:36;;;;;;;13.00;7.70;;;3.60;99.90;;;;;;5090251;28;20458;-80
2021/01/13 06:13:06;;;;;;;15.97;8.37;;;3.70;99.90;;;;;;5087693;28;20816;-80
2021/01/13 06:15:35;;;;;;;10.03;7.97;;;3.40;99.90;;;;;;5088221;28;20407;-80
2021/01/13 06:18:04;;;;;;;12.33;8.13;;;3.70;99.90;;;;;;5091112;28;20692;-80
2021/01/13 06:20:40;;;;;;;14.93;9.40;;;3.70;99.90;;;;;;5100252;28;20432;-81
2021/01/13 06:23:11;;;;;;;15.33;9.67;;;3.60;99.90;;;;;;5087022;28;20426;-80
2021/01/13 06:25:41;;;;;;;15.77;10.00;;;3.80;99.90;;;;;;5072955;28;20441;-80
2021/01/13 06:28:23;;;;;;;10.17;8.60;;;3.80;99.90;;;;;;5076961;28;20429;-80
2021/01/13 06:31:05;;;;;;;20.30;11.27;;;3.70;99.90;;;;;;5087843;28;21026;-80
2021/01/13 06:33:38;;;;;;;13.47;9.30;;;3.90;99.90;;;;;;5090245;28;20426;-80
2021/01/13 06:36:21;;;;;;;12.40;10.13;;;3.70;99.90;;;;;;5097198;28;20414;-80
2021/01/13 06:38:55;;;;;;;13.33;9.10;;;3.60;99.90;;;;;;5088796;28;20426;-80
2021/01/13 06:41:21;;;;;;;12.83;8.97;;;3.50;99.90;;;;;;5089027;28;20419;-80
2021/01/13 06:43:57;;;;;;;18.80;11.33;;;3.60;99.90;;;;;;5088190;28;20447;-80
2021/01/13 06:46:26;;;;;;;13.47;11.00;;;3.70;99.90;;;;;;5087821;28;20589;-81
2021/01/13 06:48:54;;;;;;;14.07;10.90;;;3.60;99.90;;;;;;5070011;28;20770;-80
2021/01/13 06:51:20;;;;;;;21.67;12.37;;;3.60;99.90;;;;;;5100804;28;20472;-80
2021/01/13 06:53:50;;;;;;;17.73;12.57;;;3.60;99.90;;;;;;5086774;28;20459;-80
2021/01/13 06:56:16;;;;;;;15.93;12.67;;;3.70;99.90;;;;;;5088881;28;20856;-80
2021/01/13 06:59:02;;;;;;;16.53;12.03;;;3.90;99.90;;;;;;5070313;28;20434;-80
2021/01/13 07:01:52;;;;;;;16.63;12.53;;;3.70;99.90;;;;;;5086294;28;20454;-84
2021/01/13 07:04:52;;;;;;;23.60;12.90;;;3.90;99.90;;;;;;5093026;28;20426;-84
2021/01/13 07:07:18;;;;;;;26.57;14.63;;;3.60;99.90;;;;;;5066358;28;20447;-84
2021/01/13 07:09:48;;;;;;;20.60;12.93;;;3.60;99.90;;;;;;5081755;28;20406;-84
2021/01/13 07:12:26;;;;;;;17.13;13.73;;;3.80;99.90;;;;;;5088468;28;20177;-84
2021/01/13 07:14:55;;;;;;;15.63;12.60;;;3.80;99.90;;;;;;5082109;28;20411;-80
2021/01/13 07:17:23;;;;;;;19.67;12.87;;;3.80;99.90;;;;;;5079929;28;20940;-80
2021/01/13 07:19:54;;;;;;;20.53;14.60;;;3.80;99.90;;;;;;5092569;28;20714;-80
2021/01/13 07:22:22;;;;;;;17.20;13.10;;;3.60;99.90;;;;;;5073110;28;20777;-80
2021/01/13 07:24:49;;;;;;;18.57;12.73;;;3.80;99.90;;;;;;5074197;28;20429;-80
2021/01/13 07:27:16;;;;;;;16.37;13.07;;;3.70;99.90;;;;;;5079556;28;20816;-77
2021/01/13 07:29:42;;;;;;;18.90;12.17;;;3.70;99.90;;;;;;5067028;28;20418;-77
2021/01/13 07:32:12;;;;;;;19.70;13.40;;;3.60;99.90;;;;;;5077976;28;20418;-77
2021/01/13 07:34:42;;;;;;;17.40;13.20;;;3.70;99.90;;;;;;5088027;28;20422;-77
2021/01/13 07:37:21;;;;;;;16.60;12.90;;;3.50;99.90;;;;;;5090154;28;20422;-77
2021/01/13 07:39:59;;;;;;;18.67;12.70;;;3.80;99.90;;;;;;5087890;28;20871;-77
2021/01/13 07:42:38;;;;;;;20.83;12.47;;;3.60;99.90;;;;;;5087562;28;20461;-76
2021/01/13 07:45:12;;;;;;;19.97;12.07;;;3.60;99.90;;;;;;5087369;28;20410;-77
2021/01/13 07:48:10;;;;;;;18.93;13.50;;;3.60;99.90;;;;;;5038850;28;20419;-77
2021/01/13 07:50:49;;;;;;;21.80;14.03;;;3.50;99.90;;;;;;5091726;28;20976;-77
2021/01/13 07:53:29;;;;;;;20.20;12.83;;;3.40;99.90;;;;;;5089709;28;20434;-76
2021/01/13 07:55:59;;;;;;;17.90;12.77;;;3.50;99.90;;;;;;5087705;28;20418;-77
2021/01/13 07:58:35;;;;;;;16.30;12.97;;;3.60;99.90;;;;;;5087233;28;20568;-76
2021/01/13 08:01:38;;;;;;;21.43;12.20;;;3.60;99.90;;;;;;5087045;28;20753;-76
2021/01/13 08:04:51;;;;;;;17.90;11.43;;;3.60;99.90;;;;;;5077560;28;20445;-77
2021/01/13 08:07:17;;;;;;;18.63;11.60;;;3.70;99.90;;;;;;5027459;28;20504;-77
2021/01/13 08:09:50;;;;;;;18.60;13.23;;;3.60;99.90;;;;;;5069322;28;20438;-77
2021/01/13 08:12:57;;;;;;;17.57;10.60;;;3.70;99.90;;;;;;5085610;28;20414;-77
2021/01/13 08:15:47;;;;;;;14.00;11.10;;;3.90;99.90;;;;;;5024149;28;20491;-76
2021/01/13 08:18:55;;;;;;;15.57;10.80;;;3.90;99.90;;;;;;5023086;28;20475;-76
2021/01/13 08:21:54;;;;;;;15.43;11.07;;;3.80;99.90;;;;;;5082382;28;20521;-76
2021/01/13 08:24:33;;;;;;;17.67;11.73;;;4.00;99.90;;;;;;5076373;28;20427;-76
2021/01/13 08:27:03;;;;;;;13.13;11.13;;;4.00;99.90;;;;;;5077553;28;20912;-76
2021/01/13 08:29:35;;;;;;;13.17;9.90;;;3.90;99.90;;;;;;5076779;28;20484;-75
2021/01/13 08:32:12;;;;;;;14.30;10.73;;;4.00;99.90;;;;;;5074601;28;20469;-75
2021/01/13 08:34:46;;;;;;;15.27;10.80;;;4.10;99.90;;;;;;5098009;27;20419;-76
2021/01/13 08:37:13;;;;;;;14.37;9.80;;;4.00;99.90;;;;;;5095874;28;20406;-76
2021/01/13 08:39:42;;;;;;;16.00;10.37;;;4.10;99.90;;;;;;5086701;28;20832;-75
2021/01/13 08:42:23;;;;;;;14.57;9.20;;;4.30;99.90;;;;;;5085420;28;20932;-76
2021/01/13 08:44:52;;;;;;;13.43;9.90;;;4.30;99.90;;;;;;5084561;28;20936;-76
2021/01/13 08:47:18;;;;;;;18.23;10.30;;;4.20;99.90;;;;;;5086896;28;20916;-76
2021/01/13 08:49:44;;;;;;;14.00;9.77;;;4.30;99.90;;;;;;5084991;28;20418;-76
2021/01/13 08:52:18;;;;;;;15.90;9.80;;;4.20;99.90;;;;;;5088343;28;20426;-76
2021/01/13 08:54:44;;;;;;;14.67;10.20;;;4.40;99.90;;;;;;5087654;28;20426;-75
2021/01/13 08:57:10;;;;;;;17.60;9.87;;;4.50;99.90;;;;;;5085331;28;20452;-76
2021/01/13 08:59:44;;;;;;;17.13;10.63;;;4.60;99.90;;;;;;5084771;28;20329;-75
2021/01/13 09:02:21;;;;;;;15.53;10.60;;;4.80;99.90;;;;;;5072079;28;20426;-76
2021/01/13 09:04:54;;;;;;;15.83;9.97;;;4.70;99.90;;;;;;5085814;28;20634;-75
2021/01/13 09:07:21;;;;;;;17.20;9.93;;;4.80;99.90;;;;;;5096206;28;20409;-75
2021/01/13 09:10:06;;;;;;;13.43;9.73;;;4.80;99.90;;;;;;5083762;28;20963;-76
2021/01/13 09:12:43;;;;;;;11.80;10.17;;;4.40;99.90;;;;;;5085051;28;20978;-75
2021/01/13 09:15:10;;;;;;;15.07;11.00;;;4.70;99.90;;;;;;5079769;28;20658;-76
2021/01/13 09:17:58;;;;;;;14.70;10.20;;;4.50;99.90;;;;;;5081557;28;20419;-75
2021/01/13 09:20:31;;;;;;;17.83;11.10;;;4.70;99.90;;;;;;5090750;28;20537;-76
2021/01/13 09:23:03;;;;;;;18.10;11.50;;;4.50;99.90;;;;;;5098418;28;20441;-75
2021/01/13 09:25:33;;;;;;;17.70;11.97;;;4.70;99.90;;;;;;5089195;28;20442;-75
2021/01/13 09:28:02;;;;;;;16.83;11.37;;;4.50;99.90;;;;;;5083430;28;20458;-75
2021/01/13 09:30:37;;;;;;;16.10;10.97;;;4.60;99.90;;;;;;5081582;28;20489;-75
2021/01/13 09:33:08;;;;;;;14.50;11.20;;;4.50;99.90;;;;;;5075483;28;20953;-74
2021/01/13 09:35:38;;;;;;;17.37;11.47;;;4.60;99.90;;;;;;5092860;28;20810;-75
2021/01/13 09:38:08;;;;;;;17.80;11.30;;;4.80;99.90;;;;;;5099780;28;20523;-75
2021/01/13 09:40:52;;;;;;;17.13;12.30;;;5.10;99.90;;;;;;5088857;28;20418;-74
2021/01/13 09:43:33;;;;;;;14.37;11.00;;;4.80;99.90;;;;;;5087820;28;20427;-74
2021/01/13 09:46:02;;;;;;;19.23;10.97;;;4.80;99.90;;;;;;5087924;28;20820;-75
2021/01/13 09:48:29;;;;;;;14.67;11.63;;;4.70;99.90;;;;;;5086379;28;20426;-74
2021/01/13 09:51:00;;;;;;;13.97;11.50;;;4.70;99.90;;;;;;5092448;28;20461;-74
2021/01/13 09:53:38;;;;;;;13.23;11.57;;;4.70;99.90;;;;;;5093145;28;20401;-74
2021/01/13 09:56:07;;;;;;;16.83;12.60;;;4.80;99.90;;;;;;5095293;28;20426;-74
2021/01/13 09:58:46;;;;;;;13.50;11.10;;;4.50;99.90;;;;;;5089765;28;20451;-74
2021/01/13 10:01:20;;;;;;;15.83;11.70;;;4.80;99.90;;;;;;5090342;28;20479;-74
2021/01/13 10:03:49;;;;;;;18.53;12.57;;;4.30;99.90;;;;;;5090694;28;20879;-74
2021/01/13 10:06:19;;;;;;;17.00;12.87;;;4.50;99.90;;;;;;5090757;28;20477;-74
2021/01/13 10:08:49;;;;;;;19.83;12.43;;;4.70;99.90;;;;;;5104381;28;20504;-74
2021/01/13 10:11:16;;;;;;;16.03;12.57;;;4.70;99.90;;;;;;5094727;28;20469;-75
2021/01/13 10:13:44;;;;;;;18.47;13.00;;;4.50;99.90;;;;;;5089598;28;20428;-74
2021/01/13 10:16:11;;;;;;;16.40;12.57;;;4.70;99.90;;;;;;5091397;28;21046;-74
2021/01/13 10:18:52;;;;;;;18.97;12.43;;;4.90;99.90;;;;;;5084966;28;20427;-75
2021/01/13 10:21:18;;;;;;;18.20;12.83;;;4.80;99.90;;;;;;5082483;28;20445;-74
2021/01/13 10:23:46;;;;;;;20.13;13.03;;;4.70;99.90;;;;;;5097470;28;20515;-75
2021/01/13 10:26:12;;;;;;;21.53;13.67;;;4.80;99.90;;;;;;5097780;28;20513;-74
2021/01/13 10:28:38;;;;;;;16.50;13.47;;;4.70;99.90;;;;;;5088842;28;21041;-75
2021/01/13 10:31:05;;;;;;;15.97;13.23;;;5.00;99.90;;;;;;5086328;28;20895;-75
2021/01/13 10:33:47;;;;;;;15.73;13.43;;;4.90;99.90;;;;;;5088158;28;20536;-75
2021/01/13 10:36:43;;;;;;;19.57;13.57;;;4.70;99.90;;;;;;5074885;28;20515;-74
2021/01/13 10:39:21;;;;;;;21.30;14.17;;;4.90;99.90;;;;;;5093980;28;20419;-75
2021/01/13 10:41:52;;;;;;;19.10;12.00;;;4.90;99.90;;;;;;5081116;28;20670;-74
2021/01/13 10:44:27;;;;;;;14.73;13.13;;;4.80;99.90;;;;;;5084969;28;20512;-74
2021/01/13 10:46:58;;;;;;;25.27;14.17;;;4.70;99.90;;;;;;5086250;28;20430;-74
2021/01/13 10:49:31;;;;;;;20.90;14.43;;;4.60;99.90;;;;;;5070653;28;20441;-75
2021/01/13 10:51:59;;;;;;;17.70;14.23;;;4.60;99.90;;;;;;5088132;28;20669;-74
2021/01/13 10:54:28;;;;;;;17.30;13.70;;;4.50;99.90;;;;;;5104200;28;20931;-74
2021/01/13 10:56:56;;;;;;;19.67;14.40;;;4.80;99.90;;;;;;5088345;28;20445;-75
2021/01/13 10:59:22;;;;;;;23.83;15.77;;;4.80;99.90;;;;;;5088609;28;20458;-74
2021/01/13 11:01:53;;;;;;;20.60;15.80;;;4.90;99.90;;;;;;5087353;28;20470;-75
2021/01/13 11:04:27;;;;;;;24.43;15.70;;;4.60;99.90;;;;;;5087999;28;20418;-75
2021/01/13 11:07:05;;;;;;;24.63;16.03;;;4.80;99.90;;;;;;5086997;28;20427;-75
2021/01/13 11:09:32;;;;;;;19.33;15.30;;;4.90;99.90;;;;;;5096366;28;20441;-75
2021/01/13 11:11:59;;;;;;;26.47;15.90;;;4.90;99.90;;;;;;5092999;28;20462;-75
2021/01/13 11:14:36;;;;;;;22.30;16.27;;;4.90;99.90;;;;;;5088078;28;20418;-74
2021/01/13 11:17:13;;;;;;;24.10;17.23;;;4.80;99.90;;;;;;5086920;28;20920;-75
2021/01/13 11:19:51;;;;;;;27.97;16.80;;;5.00;99.90;;;;;;5088078;28;20424;-74
2021/01/13 11:22:29;;;;;;;23.37;17.03;;;4.80;99.90;;;;;;5087999;28;20469;-75
2021/01/13 11:24:57;;;;;;;21.30;15.73;;;5.00;99.90;;;;;;5089171;28;20767;-74
2021/01/13 11:27:24;;;;;;;21.90;16.93;;;4.80;99.90;;;;;;5095591;28;20432;-75
2021/01/13 11:29:55;;;;;;;23.60;16.70;;;5.10;99.90;;;;;;5088082;28;20909;-74
2021/01/13 11:32:30;;;;;;;22.90;16.20;;;4.90;99.90;;;;;;5085941;28;20419;-75
2021/01/13 11:34:56;;;;;;;23.67;16.90;;;4.90;99.90;;;;;;5072809;28;20488;-74
2021/01/13 11:37:22;;;;;;;20.20;15.60;;;4.80;99.90;;;;;;5082810;28;20461;-74
2021/01/13 11:40:05;;;;;;;22.40;16.27;;;4.80;99.90;;;;;;5086549;28;20466;-74
2021/01/13 11:42:55;;;;;;;25.33;17.57;;;4.90;99.90;;;;;;5095455;28;20188;-74
2021/01/13 11:45:27;;;;;;;24.87;17.43;;;4.90;99.90;;;;;;5086965;28;20971;-74
2021/01/13 11:48:01;;;;;;;24.23;17.23;;;5.00;99.90;;;;;;5086969;28;20414;-74
2021/01/13 11:50:27;;;;;;;21.47;16.60;;;4.70;99.90;;;;;;5085946;28;21068;-74
2021/01/13 11:53:02;;;;;;;20.93;16.10;;;4.80;99.90;;;;;;5086946;28;20411;-74
2021/01/13 11:55:29;;;;;;;22.27;15.40;;;5.00;99.90;;;;;;5087654;28;20426;-74
2021/01/13 11:57:55;;;;;;;26.43;16.00;;;4.90;99.90;;;;;;5094074;28;20438;-74
2021/01/13 12:00:28;;;;;;;26.00;15.63;;;5.40;99.90;;;;;;5069052;28;20425;-75
2021/01/13 12:03:00;;;;;;;18.87;14.93;;;5.70;99.90;;;;;;5086440;28;20830;-74
2021/01/13 12:05:36;;;;;;;22.90;15.13;;;5.60;99.90;;;;;;5074626;28;20414;-74
2021/01/13 12:08:09;;;;;;;20.10;13.63;;;5.70;99.90;;;;;;5087250;28;20421;-74
2021/01/13 12:10:40;;;;;;;25.17;14.00;;;5.70;99.90;;;;;;5089350;28;20462;-74
2021/01/13 12:13:19;;;;;;;18.40;14.20;;;5.80;99.90;;;;;;5097167;28;20497;-74
2021/01/13 12:16:05;;;;;;;19.30;12.73;;;5.60;99.90;;;;;;5086961;28;20413;-74
2021/01/13 12:18:33;;;;;;;18.63;13.10;;;5.60;99.90;;;;;;5080454;28;20429;-74
2021/01/13 12:21:29;;;;;;;17.37;12.47;;;5.40;99.90;;;;;;5086659;28;20783;-75
2021/01/13 12:23:57;;;;;;;14.10;11.30;;;5.40;99.90;;;;;;5080828;28;20434;-75
2021/01/13 12:26:33;;;;;;;14.50;12.47;;;5.40;99.90;;;;;;5093605;28;20676;-74
2021/01/13 12:29:08;;;;;;;15.00;11.03;;;5.30;99.90;;;;;;5092834;28;20802;-74
2021/01/13 12:31:47;;;;;;;15.60;11.40;;;5.50;99.90;;;;;;5085445;28;20827;-75
2021/01/13 12:34:24;;;;;;;20.93;11.47;;;5.50;99.90;;;;;;5084413;28;20448;-74
2021/01/13 12:36:55;;;;;;;15.53;10.83;;;5.60;99.90;;;;;;5064381;28;20510;-75
2021/01/13 12:39:27;;;;;;;16.37;11.20;;;5.70;99.90;;;;;;5084529;28;20487;-74
2021/01/13 12:41:58;;;;;;;15.47;12.27;;;5.60;99.90;;;;;;5093676;28;20782;-74
2021/01/13 12:44:24;;;;;;;17.00;11.23;;;5.40;99.90;;;;;;5088034;28;20962;-74
2021/01/13 12:46:58;;;;;;;18.70;11.40;;;5.50;99.90;;;;;;5082699;28;20502;-75
2021/01/13 12:49:27;;;;;;;13.57;12.03;;;5.30;99.90;;;;;;5076742;28;20422;-74
2021/01/13 12:51:54;;;;;;;13.50;11.53;;;5.60;99.90;;;;;;5081698;28;20466;-75
2021/01/13 12:54:20;;;;;;;11.60;9.93;;;5.60;99.90;;;;;;5061407;28;20423;-75
2021/01/13 12:56:46;;;;;;;14.47;10.83;;;5.50;99.90;;;;;;5094032;28;20430;-75
2021/01/13 12:59:12;;;;;;;14.30;12.37;;;5.60;99.90;;;;;;5091467;28;20411;-75
2021/01/13 13:01:40;;;;;;;11.53;10.00;;;5.60;99.90;;;;;;5086138;28;20983;-75
2021/01/13 13:04:06;;;;;;;13.63;10.53;;;5.50;99.90;;;;;;5074835;28;20470;-74
2021/01/13 13:06:34;;;;;;;15.93;11.50;;;5.50;99.90;;;;;;5080824;28;20452;-74
2021/01/13 13:09:01;;;;;;;17.20;12.03;;;5.40;99.90;;;;;;5085990;28;20442;-74
2021/01/13 13:11:28;;;;;;;20.30;12.20;;;5.50;99.90;;;;;;5074008;28;20480;-74